sensor_id;sensor_type;location;lat;lon;timestamp;temperature;humidity
28614;DHT22;15806;53.548;9.964;2022-07-06T00:00:06;15.30;99.90
28614;DHT22;15806;53.548;9.964;2022-07-06T00:01:47;15.30;99.90
28614;DHT22;15806;53.548;9.964;2022-07-06T00:03:29;15.30;99.90
28614;DHT22;15806;53.548;9.964;2022-07-06T00:05:09;15.40;99.90
28614;DHT22;15806;53.548;9.964;2022-07-06T00:06:50;15.30;99.90
28614;DHT22;15806;53.548;9.964;2022-07-06T00:08:31;15.30;99.90
28614;DHT22;15806;53.548;9.964;2022-07-06T00:10:12;15.30;99.90
28614;DHT22;15806;53.548;9.964;2022-07-06T00:11:53;15.20;99.90
28614;DHT22;15806;53.548;9.964;2022-07-06T00:13:33;15.20;99.90
28614;DHT22;15806;53.548;9.964;2022-07-06T00:15:14;15.20;99.90
28614;DHT22;15806;53.548;9.964;2022-07-06T00:16:54;15.20;99.90
28614;DHT22;15806;53.548;9.964;2022-07-06T00:18:35;15.20;99.90
28614;DHT22;15806;53.548;9.964;2022-07-06T00:20:15;15.20;99.90
28614;DHT22;15806;53.548;9.964;2022-07-06T00:21:56;15.10;99.90
28614;DHT22;15806;53.548;9.964;2022-07-06T00:23:37;15.10;99.90
28614;DHT22;15806;53.548;9.964;2022-07-06T00:25:17;15.10;99.90
28614;DHT22;15806;53.548;9.964;2022-07-06T00:26:58;15.10;99.90
28614;DHT22;15806;53.548;9.964;2022-07-06T00:28:39;15.10;99.90
28614;DHT22;15806;53.548;9.964;2022-07-06T00:30:19;15.10;99.90
28614;DHT22;15806;53.548;9.964;2022-07-06T00:32:00;15.10;99.90
28614;DHT22;15806;53.548;9.964;2022-07-06T00:33:40;15.10;99.90
28614;DHT22;15806;53.548;9.964;2022-07-06T00:35:21;15.10;99.90
28614;DHT22;15806;53.548;9.964;2022-07-06T00:37:02;15.20;99.90
28614;DHT22;15806;53.548;9.964;2022-07-06T00:38:42;15.20;99.90
28614;DHT22;15806;53.548;9.964;2022-07-06T00:40:23;15.20;99.90
28614;DHT22;15806;53.548;9.964;2022-07-06T00:42:03;15.20;99.90
28614;DHT22;15806;53.548;9.964;2022-07-06T00:43:49;15.20;99.90
28614;DHT22;15806;53.548;9.964;2022-07-06T00:45:30;15.20;99.90
28614;DHT22;15806;53.548;9.964;2022-07-06T00:47:10;15.10;99.90
28614;DHT22;15806;53.548;9.964;2022-07-06T00:48:51;15.10;99.90
28614;DHT22;15806;53.548;9.964;2022-07-06T00:50:32;15.10;99.90
28614;DHT22;15806;53.548;9.964;2022-07-06T00:52:14;15.10;99.90
28614;DHT22;15806;53.548;9.964;2022-07-06T00:53:55;15.10;99.90
28614;DHT22;15806;53.548;9.964;2022-07-06T00:55:39;15.10;99.90
28614;DHT22;15806;53.548;9.964;2022-07-06T00:57:19;15.10;99.90
28614;DHT22;15806;53.548;9.964;2022-07-06T00:59:01;15.10;99.90
28614;DHT22;15806;53.548;9.964;2022-07-06T01:00:42;15.10;99.90
28614;DHT22;15806;53.548;9.964;2022-07-06T01:02:22;15.10;99.90
28614;DHT22;15806;53.548;9.964;2022-07-06T01:04:03;15.10;99.90
28614;DHT22;15806;53.548;9.964;2022-07-06T01:05:43;15.10;99.90
28614;DHT22;15806;53.548;9.964;2022-07-06T01:07:25;15.20;99.90
28614;DHT22;15806;53.548;9.964;2022-07-06T01:09:05;15.20;99.90
28614;DHT22;15806;53.548;9.964;2022-07-06T01:10:46;15.10;99.90
28614;DHT22;15806;53.548;9.964;2022-07-06T01:12:28;15.10;99.90
28614;DHT22;15806;53.548;9.964;2022-07-06T01:14:09;15.20;99.90
28614;DHT22;15806;53.548;9.964;2022-07-06T01:15:51;15.20;99.90
28614;DHT22;15806;53.548;9.964;2022-07-06T01:17:33;15.10;99.90
28614;DHT22;15806;53.548;9.964;2022-07-06T01:19:14;15.10;99.90
28614;DHT22;15806;53.548;9.964;2022-07-06T01:21:08;15.10;99.90
28614;DHT22;15806;53.548;9.964;2022-07-06T01:22:50;15.10;99.90
28614;DHT22;15806;53.548;9.964;2022-07-06T01:24:31;15.10;99.90
28614;DHT22;15806;53.548;9.964;2022-07-06T01:26:19;15.10;99.90
28614;DHT22;15806;53.548;9.964;2022-07-06T01:28:00;15.10;99.90
28614;DHT22;15806;53.548;9.964;2022-07-06T01:29:40;15.10;99.90
28614;DHT22;15806;53.548;9.964;2022-07-06T01:31:23;15.10;99.90
28614;DHT22;15806;53.548;9.964;2022-07-06T01:33:03;15.10;99.90
28614;DHT22;15806;53.548;9.964;2022-07-06T01:34:44;15.10;99.90
28614;DHT22;15806;53.548;9.964;2022-07-06T01:36:24;15.10;99.90
28614;DHT22;15806;53.548;9.964;2022-07-06T01:38:05;15.10;99.90
28614;DHT22;15806;53.548;9.964;2022-07-06T01:39:46;15.10;99.90
28614;DHT22;15806;53.548;9.964;2022-07-06T01:41:26;15.10;99.90
28614;DHT22;15806;53.548;9.964;2022-07-06T01:43:07;15.10;99.90
28614;DHT22;15806;53.548;9.964;2022-07-06T01:44:47;15.00;99.90
28614;DHT22;15806;53.548;9.964;2022-07-06T01:46:28;15.00;99.90
28614;DHT22;15806;53.548;9.964;2022-07-06T01:48:09;15.00;99.90
28614;DHT22;15806;53.548;9.964;2022-07-06T01:49:49;15.00;99.90
28614;DHT22;15806;53.548;9.964;2022-07-06T01:51:30;15.10;99.90
28614;DHT22;15806;53.548;9.964;2022-07-06T01:53:11;15.10;99.90
28614;DHT22;15806;53.548;9.964;2022-07-06T01:54:51;15.10;99.90
28614;DHT22;15806;53.548;9.964;2022-07-06T01:56:32;15.00;99.90
28614;DHT22;15806;53.548;9.964;2022-07-06T01:58:12;15.10;99.90
28614;DHT22;15806;53.548;9.964;2022-07-06T01:59:53;15.00;99.90
28614;DHT22;15806;53.548;9.964;2022-07-06T02:01:33;15.00;99.90
28614;DHT22;15806;53.548;9.964;2022-07-06T02:03:14;15.00;99.90
28614;DHT22;15806;53.548;9.964;2022-07-06T02:04:54;15.00;99.90
28614;DHT22;15806;53.548;9.964;2022-07-06T02:06:35;15.00;99.90
28614;DHT22;15806;53.548;9.964;2022-07-06T02:08:16;15.10;99.90
28614;DHT22;15806;53.548;9.964;2022-07-06T02:09:56;15.10;99.90
28614;DHT22;15806;53.548;9.964;2022-07-06T02:11:37;15.00;99.90
28614;DHT22;15806;53.548;9.964;2022-07-06T02:13:17;15.00;99.90
28614;DHT22;15806;53.548;9.964;2022-07-06T02:14:58;15.00;99.90
28614;DHT22;15806;53.548;9.964;2022-07-06T02:16:38;15.00;99.90
28614;DHT22;15806;53.548;9.964;2022-07-06T02:18:19;15.00;99.90
28614;DHT22;15806;53.548;9.964;2022-07-06T02:19:59;15.00;99.90
28614;DHT22;15806;53.548;9.964;2022-07-06T02:21:40;15.10;99.90
28614;DHT22;15806;53.548;9.964;2022-07-06T02:23:21;15.00;99.90
28614;DHT22;15806;53.548;9.964;2022-07-06T02:25:01;15.00;99.90
28614;DHT22;15806;53.548;9.964;2022-07-06T02:26:42;15.00;99.90
28614;DHT22;15806;53.548;9.964;2022-07-06T02:28:22;15.00;99.90
28614;DHT22;15806;53.548;9.964;2022-07-06T02:30:04;15.00;99.90
28614;DHT22;15806;53.548;9.964;2022-07-06T02:31:48;15.00;99.90
28614;DHT22;15806;53.548;9.964;2022-07-06T02:33:28;15.00;99.90
28614;DHT22;15806;53.548;9.964;2022-07-06T02:35:09;15.00;99.90
28614;DHT22;15806;53.548;9.964;2022-07-06T02:36:49;15.00;99.90
28614;DHT22;15806;53.548;9.964;2022-07-06T02:38:30;15.00;99.90
28614;DHT22;15806;53.548;9.964;2022-07-06T02:40:11;15.00;99.90
28614;DHT22;15806;53.548;9.964;2022-07-06T02:41:51;15.00;99.90
28614;DHT22;15806;53.548;9.964;2022-07-06T02:43:32;15.00;99.90
28614;DHT22;15806;53.548;9.964;2022-07-06T02:45:12;15.00;99.90
28614;DHT22;15806;53.548;9.964;2022-07-06T02:46:53;15.00;99.90
28614;DHT22;15806;53.548;9.964;2022-07-06T02:48:34;15.00;99.90
28614;DHT22;15806;53.548;9.964;2022-07-06T02:50:15;15.00;99.90
28614;DHT22;15806;53.548;9.964;2022-07-06T02:51:55;15.00;99.90
28614;DHT22;15806;53.548;9.964;2022-07-06T02:53:36;15.00;99.90
28614;DHT22;15806;53.548;9.964;2022-07-06T02:55:17;15.00;99.90
28614;DHT22;15806;53.548;9.964;2022-07-06T02:56:57;15.00;99.90
28614;DHT22;15806;53.548;9.964;2022-07-06T02:58:38;15.00;99.90
28614;DHT22;15806;53.548;9.964;2022-07-06T03:00:18;15.00;99.90
28614;DHT22;15806;53.548;9.964;2022-07-06T03:01:59;15.00;99.90
28614;DHT22;15806;53.548;9.964;2022-07-06T03:03:39;15.00;99.90
28614;DHT22;15806;53.548;9.964;2022-07-06T03:05:20;14.90;99.90
28614;DHT22;15806;53.548;9.964;2022-07-06T03:07:01;14.90;99.90
28614;DHT22;15806;53.548;9.964;2022-07-06T03:08:41;15.00;99.90
28614;DHT22;15806;53.548;9.964;2022-07-06T03:10:22;14.90;99.90
28614;DHT22;15806;53.548;9.964;2022-07-06T03:12:02;14.80;99.90
28614;DHT22;15806;53.548;9.964;2022-07-06T03:13:43;14.80;99.90
28614;DHT22;15806;53.548;9.964;2022-07-06T03:15:24;14.80;99.90
28614;DHT22;15806;53.548;9.964;2022-07-06T03:17:04;14.80;99.90
28614;DHT22;15806;53.548;9.964;2022-07-06T03:18:45;14.80;99.90
28614;DHT22;15806;53.548;9.964;2022-07-06T03:20:25;14.80;99.90
28614;DHT22;15806;53.548;9.964;2022-07-06T03:22:07;14.90;99.90
28614;DHT22;15806;53.548;9.964;2022-07-06T03:23:47;15.00;99.90
28614;DHT22;15806;53.548;9.964;2022-07-06T03:25:28;15.00;99.90
28614;DHT22;15806;53.548;9.964;2022-07-06T03:27:08;15.10;99.90
28614;DHT22;15806;53.548;9.964;2022-07-06T03:28:49;15.00;99.90
28614;DHT22;15806;53.548;9.964;2022-07-06T03:30:29;15.00;99.90
28614;DHT22;15806;53.548;9.964;2022-07-06T03:32:10;15.00;99.90
28614;DHT22;15806;53.548;9.964;2022-07-06T03:33:52;15.00;99.90
28614;DHT22;15806;53.548;9.964;2022-07-06T03:35:33;15.00;99.90
28614;DHT22;15806;53.548;9.964;2022-07-06T03:37:13;15.00;99.90
28614;DHT22;15806;53.548;9.964;2022-07-06T03:38:54;15.00;99.90
28614;DHT22;15806;53.548;9.964;2022-07-06T03:40:34;15.00;99.90
28614;DHT22;15806;53.548;9.964;2022-07-06T03:42:15;15.00;99.90
28614;DHT22;15806;53.548;9.964;2022-07-06T03:43:55;15.00;99.90
28614;DHT22;15806;53.548;9.964;2022-07-06T03:45:36;15.00;99.90
28614;DHT22;15806;53.548;9.964;2022-07-06T03:47:17;14.90;99.90
28614;DHT22;15806;53.548;9.964;2022-07-06T03:48:57;14.90;99.90
28614;DHT22;15806;53.548;9.964;2022-07-06T03:50:38;14.90;99.90
28614;DHT22;15806;53.548;9.964;2022-07-06T03:52:18;14.90;99.90
28614;DHT22;15806;53.548;9.964;2022-07-06T03:53:59;14.90;99.90
28614;DHT22;15806;53.548;9.964;2022-07-06T03:55:39;14.90;99.90
28614;DHT22;15806;53.548;9.964;2022-07-06T03:57:20;14.90;99.90
28614;DHT22;15806;53.548;9.964;2022-07-06T03:59:02;14.90;99.90
28614;DHT22;15806;53.548;9.964;2022-07-06T04:00:42;14.90;99.90
28614;DHT22;15806;53.548;9.964;2022-07-06T04:02:23;14.90;99.90
28614;DHT22;15806;53.548;9.964;2022-07-06T04:04:03;14.90;99.90
28614;DHT22;15806;53.548;9.964;2022-07-06T04:05:44;14.90;99.90
28614;DHT22;15806;53.548;9.964;2022-07-06T04:07:25;14.90;99.90
28614;DHT22;15806;53.548;9.964;2022-07-06T04:09:07;14.80;99.90
28614;DHT22;15806;53.548;9.964;2022-07-06T04:10:47;14.80;99.90
28614;DHT22;15806;53.548;9.964;2022-07-06T04:12:28;14.80;99.90
28614;DHT22;15806;53.548;9.964;2022-07-06T04:14:08;14.80;99.90
28614;DHT22;15806;53.548;9.964;2022-07-06T04:15:49;14.80;99.90
28614;DHT22;15806;53.548;9.964;2022-07-06T04:17:29;14.80;99.90
28614;DHT22;15806;53.548;9.964;2022-07-06T04:19:10;14.80;99.90
28614;DHT22;15806;53.548;9.964;2022-07-06T04:20:50;14.80;99.90
28614;DHT22;15806;53.548;9.964;2022-07-06T04:22:32;14.80;99.90
28614;DHT22;15806;53.548;9.964;2022-07-06T04:24:12;14.90;99.90
28614;DHT22;15806;53.548;9.964;2022-07-06T04:25:54;14.90;99.90
28614;DHT22;15806;53.548;9.964;2022-07-06T04:27:34;14.90;99.90
28614;DHT22;15806;53.548;9.964;2022-07-06T04:29:15;14.90;99.90
28614;DHT22;15806;53.548;9.964;2022-07-06T04:30:55;15.00;99.90
28614;DHT22;15806;53.548;9.964;2022-07-06T04:32:36;15.00;99.90
28614;DHT22;15806;53.548;9.964;2022-07-06T04:34:16;15.10;99.90
28614;DHT22;15806;53.548;9.964;2022-07-06T04:35:57;15.10;99.90
28614;DHT22;15806;53.548;9.964;2022-07-06T04:37:38;15.20;99.90
28614;DHT22;15806;53.548;9.964;2022-07-06T04:39:18;15.20;99.90
28614;DHT22;15806;53.548;9.964;2022-07-06T04:40:59;15.20;99.90
28614;DHT22;15806;53.548;9.964;2022-07-06T04:42:39;15.20;99.90
28614;DHT22;15806;53.548;9.964;2022-07-06T04:44:20;15.30;99.90
28614;DHT22;15806;53.548;9.964;2022-07-06T04:46:00;15.30;99.90
28614;DHT22;15806;53.548;9.964;2022-07-06T04:47:41;15.30;99.90
28614;DHT22;15806;53.548;9.964;2022-07-06T04:49:21;15.40;99.90
28614;DHT22;15806;53.548;9.964;2022-07-06T04:51:02;15.40;99.90
28614;DHT22;15806;53.548;9.964;2022-07-06T04:52:42;15.30;99.90
28614;DHT22;15806;53.548;9.964;2022-07-06T04:54:23;15.30;99.90
28614;DHT22;15806;53.548;9.964;2022-07-06T04:56:04;15.20;99.90
28614;DHT22;15806;53.548;9.964;2022-07-06T04:57:44;15.20;99.90
28614;DHT22;15806;53.548;9.964;2022-07-06T04:59:25;15.30;99.90
28614;DHT22;15806;53.548;9.964;2022-07-06T05:01:07;15.20;99.90
28614;DHT22;15806;53.548;9.964;2022-07-06T05:02:47;15.10;99.90
28614;DHT22;15806;53.548;9.964;2022-07-06T05:04:28;15.20;99.90
28614;DHT22;15806;53.548;9.964;2022-07-06T05:06:08;15.20;99.90
28614;DHT22;15806;53.548;9.964;2022-07-06T05:07:49;15.20;99.90
28614;DHT22;15806;53.548;9.964;2022-07-06T05:09:29;15.20;99.90
28614;DHT22;15806;53.548;9.964;2022-07-06T05:11:10;15.30;99.90
28614;DHT22;15806;53.548;9.964;2022-07-06T05:12:50;15.20;99.90
28614;DHT22;15806;53.548;9.964;2022-07-06T05:14:31;15.10;99.90
28614;DHT22;15806;53.548;9.964;2022-07-06T05:16:11;15.10;99.90
28614;DHT22;15806;53.548;9.964;2022-07-06T05:17:52;15.10;99.90
28614;DHT22;15806;53.548;9.964;2022-07-06T05:19:32;15.20;99.90
28614;DHT22;15806;53.548;9.964;2022-07-06T05:21:13;15.20;99.90
28614;DHT22;15806;53.548;9.964;2022-07-06T05:22:53;15.30;99.90
28614;DHT22;15806;53.548;9.964;2022-07-06T05:24:34;15.20;99.90
28614;DHT22;15806;53.548;9.964;2022-07-06T05:26:14;15.10;99.90
28614;DHT22;15806;53.548;9.964;2022-07-06T05:27:55;15.10;99.90
28614;DHT22;15806;53.548;9.964;2022-07-06T05:29:35;15.10;99.90
28614;DHT22;15806;53.548;9.964;2022-07-06T05:31:16;15.00;99.90
28614;DHT22;15806;53.548;9.964;2022-07-06T05:32:56;15.00;99.90
28614;DHT22;15806;53.548;9.964;2022-07-06T05:34:37;15.10;99.90
28614;DHT22;15806;53.548;9.964;2022-07-06T05:36:18;15.20;99.90
28614;DHT22;15806;53.548;9.964;2022-07-06T05:37:58;15.20;99.90
28614;DHT22;15806;53.548;9.964;2022-07-06T05:39:39;15.10;99.90
28614;DHT22;15806;53.548;9.964;2022-07-06T05:41:19;15.00;99.90
28614;DHT22;15806;53.548;9.964;2022-07-06T05:43:00;15.10;99.90
28614;DHT22;15806;53.548;9.964;2022-07-06T05:44:40;15.20;99.90
28614;DHT22;15806;53.548;9.964;2022-07-06T05:46:21;15.10;99.90
28614;DHT22;15806;53.548;9.964;2022-07-06T05:48:01;15.20;99.90
28614;DHT22;15806;53.548;9.964;2022-07-06T05:49:42;15.30;99.90
28614;DHT22;15806;53.548;9.964;2022-07-06T05:51:23;15.40;99.90
28614;DHT22;15806;53.548;9.964;2022-07-06T05:53:04;15.50;99.90
28614;DHT22;15806;53.548;9.964;2022-07-06T05:54:45;15.40;99.90
28614;DHT22;15806;53.548;9.964;2022-07-06T05:56:26;15.50;99.90
28614;DHT22;15806;53.548;9.964;2022-07-06T05:58:07;15.30;99.90
28614;DHT22;15806;53.548;9.964;2022-07-06T05:59:48;15.40;99.90
28614;DHT22;15806;53.548;9.964;2022-07-06T06:01:28;15.50;99.90
28614;DHT22;15806;53.548;9.964;2022-07-06T06:03:09;15.50;99.90
28614;DHT22;15806;53.548;9.964;2022-07-06T06:04:51;15.60;99.90
28614;DHT22;15806;53.548;9.964;2022-07-06T06:06:31;15.60;99.90
28614;DHT22;15806;53.548;9.964;2022-07-06T06:08:12;15.50;99.90
28614;DHT22;15806;53.548;9.964;2022-07-06T06:09:52;15.60;99.90
28614;DHT22;15806;53.548;9.964;2022-07-06T06:11:33;15.60;99.90
28614;DHT22;15806;53.548;9.964;2022-07-06T06:13:13;15.60;99.90
28614;DHT22;15806;53.548;9.964;2022-07-06T06:14:54;15.60;99.90
28614;DHT22;15806;53.548;9.964;2022-07-06T06:16:34;15.60;99.90
28614;DHT22;15806;53.548;9.964;2022-07-06T06:18:15;15.50;99.90
28614;DHT22;15806;53.548;9.964;2022-07-06T06:19:56;15.50;99.90
28614;DHT22;15806;53.548;9.964;2022-07-06T06:21:37;15.50;99.90
28614;DHT22;15806;53.548;9.964;2022-07-06T06:23:17;15.50;99.90
28614;DHT22;15806;53.548;9.964;2022-07-06T06:24:58;15.50;99.90
28614;DHT22;15806;53.548;9.964;2022-07-06T06:26:38;15.60;99.90
28614;DHT22;15806;53.548;9.964;2022-07-06T06:28:19;15.60;99.90
28614;DHT22;15806;53.548;9.964;2022-07-06T06:29:59;15.50;99.90
28614;DHT22;15806;53.548;9.964;2022-07-06T06:31:40;15.40;99.90
28614;DHT22;15806;53.548;9.964;2022-07-06T06:33:20;15.40;99.90
28614;DHT22;15806;53.548;9.964;2022-07-06T06:35:01;15.30;99.90
28614;DHT22;15806;53.548;9.964;2022-07-06T06:36:41;15.20;99.90
28614;DHT22;15806;53.548;9.964;2022-07-06T06:38:23;15.30;99.90
28614;DHT22;15806;53.548;9.964;2022-07-06T06:40:04;15.50;99.90
28614;DHT22;15806;53.548;9.964;2022-07-06T06:41:45;15.50;99.90
28614;DHT22;15806;53.548;9.964;2022-07-06T06:43:25;15.50;99.90
28614;DHT22;15806;53.548;9.964;2022-07-06T06:45:06;15.60;99.90
28614;DHT22;15806;53.548;9.964;2022-07-06T06:46:47;15.70;99.90
28614;DHT22;15806;53.548;9.964;2022-07-06T06:48:27;15.70;99.90
28614;DHT22;15806;53.548;9.964;2022-07-06T06:50:08;15.70;99.90
28614;DHT22;15806;53.548;9.964;2022-07-06T06:51:49;15.60;99.90
28614;DHT22;15806;53.548;9.964;2022-07-06T06:53:29;15.60;99.90
28614;DHT22;15806;53.548;9.964;2022-07-06T06:55:10;15.70;99.90
28614;DHT22;15806;53.548;9.964;2022-07-06T06:56:50;15.70;99.90
28614;DHT22;15806;53.548;9.964;2022-07-06T06:58:31;15.80;99.90
28614;DHT22;15806;53.548;9.964;2022-07-06T07:00:12;15.90;99.90
28614;DHT22;15806;53.548;9.964;2022-07-06T07:01:53;16.10;99.90
28614;DHT22;15806;53.548;9.964;2022-07-06T07:03:34;16.20;99.90
28614;DHT22;15806;53.548;9.964;2022-07-06T07:05:15;16.20;99.90
28614;DHT22;15806;53.548;9.964;2022-07-06T07:06:56;16.30;99.90
28614;DHT22;15806;53.548;9.964;2022-07-06T07:08:36;16.30;99.90
28614;DHT22;15806;53.548;9.964;2022-07-06T07:10:17;16.30;99.90
28614;DHT22;15806;53.548;9.964;2022-07-06T07:11:57;16.30;99.90
28614;DHT22;15806;53.548;9.964;2022-07-06T07:13:38;16.40;99.90
28614;DHT22;15806;53.548;9.964;2022-07-06T07:15:18;16.40;99.90
28614;DHT22;15806;53.548;9.964;2022-07-06T07:16:59;16.40;99.90
28614;DHT22;15806;53.548;9.964;2022-07-06T07:18:39;16.40;99.90
28614;DHT22;15806;53.548;9.964;2022-07-06T07:20:20;16.60;99.90
28614;DHT22;15806;53.548;9.964;2022-07-06T07:22:01;16.60;99.90
28614;DHT22;15806;53.548;9.964;2022-07-06T07:23:42;16.50;99.90
28614;DHT22;15806;53.548;9.964;2022-07-06T07:25:22;16.50;99.90
28614;DHT22;15806;53.548;9.964;2022-07-06T07:27:03;16.50;99.90
28614;DHT22;15806;53.548;9.964;2022-07-06T07:28:45;16.50;99.90
28614;DHT22;15806;53.548;9.964;2022-07-06T07:30:26;16.50;99.90
28614;DHT22;15806;53.548;9.964;2022-07-06T07:32:06;16.50;99.90
28614;DHT22;15806;53.548;9.964;2022-07-06T07:33:47;16.40;99.90
28614;DHT22;15806;53.548;9.964;2022-07-06T07:35:28;16.40;99.90
28614;DHT22;15806;53.548;9.964;2022-07-06T07:37:08;16.20;99.90
28614;DHT22;15806;53.548;9.964;2022-07-06T07:38:49;16.10;99.90
28614;DHT22;15806;53.548;9.964;2022-07-06T07:40:29;15.90;99.90
28614;DHT22;15806;53.548;9.964;2022-07-06T07:42:10;15.90;99.90
28614;DHT22;15806;53.548;9.964;2022-07-06T07:43:51;15.80;99.90
28614;DHT22;15806;53.548;9.964;2022-07-06T07:45:31;15.80;99.90
28614;DHT22;15806;53.548;9.964;2022-07-06T07:47:12;15.80;99.90
28614;DHT22;15806;53.548;9.964;2022-07-06T07:48:52;15.80;99.90
28614;DHT22;15806;53.548;9.964;2022-07-06T07:50:33;15.80;99.90
28614;DHT22;15806;53.548;9.964;2022-07-06T07:52:14;15.80;99.90
28614;DHT22;15806;53.548;9.964;2022-07-06T07:53:55;15.80;99.90
28614;DHT22;15806;53.548;9.964;2022-07-06T07:55:36;15.80;99.90
28614;DHT22;15806;53.548;9.964;2022-07-06T07:57:16;15.70;99.90
28614;DHT22;15806;53.548;9.964;2022-07-06T07:58:57;15.60;99.90
28614;DHT22;15806;53.548;9.964;2022-07-06T08:00:38;15.60;99.90
28614;DHT22;15806;53.548;9.964;2022-07-06T08:02:19;15.60;99.90
28614;DHT22;15806;53.548;9.964;2022-07-06T08:04:00;15.70;99.90
28614;DHT22;15806;53.548;9.964;2022-07-06T08:05:41;15.60;99.90
28614;DHT22;15806;53.548;9.964;2022-07-06T08:07:21;15.50;99.90
28614;DHT22;15806;53.548;9.964;2022-07-06T08:09:02;15.50;99.90
28614;DHT22;15806;53.548;9.964;2022-07-06T08:10:43;15.50;99.90
28614;DHT22;15806;53.548;9.964;2022-07-06T08:12:23;15.50;99.90
28614;DHT22;15806;53.548;9.964;2022-07-06T08:14:04;15.50;99.90
28614;DHT22;15806;53.548;9.964;2022-07-06T08:15:44;15.50;99.90
28614;DHT22;15806;53.548;9.964;2022-07-06T08:17:25;15.60;99.90
28614;DHT22;15806;53.548;9.964;2022-07-06T08:19:05;15.60;99.90
28614;DHT22;15806;53.548;9.964;2022-07-06T08:20:46;15.60;99.90
28614;DHT22;15806;53.548;9.964;2022-07-06T08:22:26;15.60;99.90
28614;DHT22;15806;53.548;9.964;2022-07-06T08:24:07;15.60;99.90
28614;DHT22;15806;53.548;9.964;2022-07-06T08:25:48;15.60;99.90
28614;DHT22;15806;53.548;9.964;2022-07-06T08:27:29;15.60;99.90
28614;DHT22;15806;53.548;9.964;2022-07-06T08:29:11;15.60;99.90
28614;DHT22;15806;53.548;9.964;2022-07-06T08:30:52;15.60;99.90
28614;DHT22;15806;53.548;9.964;2022-07-06T08:32:33;15.40;99.90
28614;DHT22;15806;53.548;9.964;2022-07-06T08:34:16;15.30;99.90
28614;DHT22;15806;53.548;9.964;2022-07-06T08:35:57;15.20;99.90
28614;DHT22;15806;53.548;9.964;2022-07-06T08:37:37;15.20;99.90
28614;DHT22;15806;53.548;9.964;2022-07-06T08:39:18;15.20;99.90
28614;DHT22;15806;53.548;9.964;2022-07-06T08:40:58;15.20;99.90
28614;DHT22;15806;53.548;9.964;2022-07-06T08:42:40;15.10;99.90
28614;DHT22;15806;53.548;9.964;2022-07-06T08:44:23;15.10;99.90
28614;DHT22;15806;53.548;9.964;2022-07-06T08:46:05;15.30;99.90
28614;DHT22;15806;53.548;9.964;2022-07-06T08:47:49;15.40;99.90
28614;DHT22;15806;53.548;9.964;2022-07-06T08:49:29;15.40;99.90
28614;DHT22;15806;53.548;9.964;2022-07-06T08:51:13;15.60;99.90
28614;DHT22;15806;53.548;9.964;2022-07-06T08:52:54;15.70;99.90
28614;DHT22;15806;53.548;9.964;2022-07-06T08:54:34;15.70;99.90
28614;DHT22;15806;53.548;9.964;2022-07-06T08:56:16;15.80;99.90
28614;DHT22;15806;53.548;9.964;2022-07-06T08:57:58;15.80;99.90
28614;DHT22;15806;53.548;9.964;2022-07-06T08:59:39;16.00;99.90
28614;DHT22;15806;53.548;9.964;2022-07-06T09:01:19;16.00;99.90
28614;DHT22;15806;53.548;9.964;2022-07-06T09:03:01;16.10;99.90
28614;DHT22;15806;53.548;9.964;2022-07-06T09:04:43;16.10;99.90
28614;DHT22;15806;53.548;9.964;2022-07-06T09:06:24;16.00;99.90
28614;DHT22;15806;53.548;9.964;2022-07-06T09:08:05;16.10;99.90
28614;DHT22;15806;53.548;9.964;2022-07-06T09:09:46;16.20;99.90
28614;DHT22;15806;53.548;9.964;2022-07-06T09:11:26;16.40;99.90
28614;DHT22;15806;53.548;9.964;2022-07-06T09:13:08;16.60;99.90
28614;DHT22;15806;53.548;9.964;2022-07-06T09:14:48;16.70;99.90
28614;DHT22;15806;53.548;9.964;2022-07-06T09:16:30;16.90;99.90
28614;DHT22;15806;53.548;9.964;2022-07-06T09:18:10;16.90;99.90
28614;DHT22;15806;53.548;9.964;2022-07-06T09:19:51;17.00;99.90
28614;DHT22;15806;53.548;9.964;2022-07-06T09:21:32;16.90;99.90
28614;DHT22;15806;53.548;9.964;2022-07-06T09:23:16;17.10;99.90
28614;DHT22;15806;53.548;9.964;2022-07-06T09:25:10;17.50;99.90
28614;DHT22;15806;53.548;9.964;2022-07-06T09:26:58;18.00;99.90
28614;DHT22;15806;53.548;9.964;2022-07-06T09:28:43;18.30;99.90
28614;DHT22;15806;53.548;9.964;2022-07-06T09:30:25;18.20;99.90
28614;DHT22;15806;53.548;9.964;2022-07-06T09:32:06;18.00;99.90
28614;DHT22;15806;53.548;9.964;2022-07-06T09:33:54;18.60;99.90
28614;DHT22;15806;53.548;9.964;2022-07-06T09:35:38;18.90;99.90
28614;DHT22;15806;53.548;9.964;2022-07-06T09:37:19;19.90;99.90
28614;DHT22;15806;53.548;9.964;2022-07-06T09:39:21;20.70;99.90
28614;DHT22;15806;53.548;9.964;2022-07-06T09:41:02;21.80;99.90
28614;DHT22;15806;53.548;9.964;2022-07-06T09:42:42;21.90;99.90
28614;DHT22;15806;53.548;9.964;2022-07-06T09:44:26;20.30;99.90
28614;DHT22;15806;53.548;9.964;2022-07-06T09:46:07;19.20;99.90
28614;DHT22;15806;53.548;9.964;2022-07-06T09:47:48;18.80;99.90
28614;DHT22;15806;53.548;9.964;2022-07-06T09:49:29;18.30;99.90
28614;DHT22;15806;53.548;9.964;2022-07-06T09:51:09;18.00;99.90
28614;DHT22;15806;53.548;9.964;2022-07-06T09:52:55;17.90;99.90
28614;DHT22;15806;53.548;9.964;2022-07-06T09:54:37;17.80;99.90
28614;DHT22;15806;53.548;9.964;2022-07-06T09:56:18;17.70;99.90
28614;DHT22;15806;53.548;9.964;2022-07-06T09:57:58;17.70;99.90
28614;DHT22;15806;53.548;9.964;2022-07-06T09:59:39;17.80;99.90
28614;DHT22;15806;53.548;9.964;2022-07-06T10:01:26;17.80;99.90
28614;DHT22;15806;53.548;9.964;2022-07-06T10:03:08;17.90;99.90
28614;DHT22;15806;53.548;9.964;2022-07-06T10:04:50;18.10;99.90
28614;DHT22;15806;53.548;9.964;2022-07-06T10:06:31;18.10;99.90
28614;DHT22;15806;53.548;9.964;2022-07-06T10:08:13;18.40;99.90
28614;DHT22;15806;53.548;9.964;2022-07-06T10:09:54;18.50;99.90
28614;DHT22;15806;53.548;9.964;2022-07-06T10:11:39;18.60;99.90
28614;DHT22;15806;53.548;9.964;2022-07-06T10:13:20;19.40;99.90
28614;DHT22;15806;53.548;9.964;2022-07-06T10:15:03;19.10;99.90
28614;DHT22;15806;53.548;9.964;2022-07-06T10:16:45;17.80;99.90
28614;DHT22;15806;53.548;9.964;2022-07-06T10:18:29;17.10;99.90
28614;DHT22;15806;53.548;9.964;2022-07-06T10:20:11;16.80;99.90
28614;DHT22;15806;53.548;9.964;2022-07-06T10:21:52;16.50;99.90
28614;DHT22;15806;53.548;9.964;2022-07-06T10:23:34;16.60;99.90
28614;DHT22;15806;53.548;9.964;2022-07-06T10:25:17;16.50;99.90
28614;DHT22;15806;53.548;9.964;2022-07-06T10:26:58;16.40;99.90
28614;DHT22;15806;53.548;9.964;2022-07-06T10:28:39;16.50;99.90
28614;DHT22;15806;53.548;9.964;2022-07-06T10:30:21;16.50;99.90
28614;DHT22;15806;53.548;9.964;2022-07-06T10:32:03;16.50;99.90
28614;DHT22;15806;53.548;9.964;2022-07-06T10:33:44;16.50;99.90
28614;DHT22;15806;53.548;9.964;2022-07-06T10:35:25;16.40;99.90
28614;DHT22;15806;53.548;9.964;2022-07-06T10:37:06;16.20;99.90